Terminal Aerodrome Forecast
Issued by NWS Newport/Morehead City, NC

Home | Current Version | Previous Version | Text Only | Print | Product List | Glossary On
Versions: 1 2 3 4 5 6 7 8 9 10 11 12 13 14 15 16 17 18
000
FTUS42 KMHX 150526
TAFEWN
TAF
KEWN 150526Z 1506/1606 VRB04KT P6SM SCT007
     FM150800 VRB04KT P6SM SCT008 BKN030
     FM151600 36006KT P6SM SCT020 BKN035
     FM160000 VRB04KT P6SM SCT025 BKN050=

USA.gov is the U.S. government's official web portal to all federal, state and local government web resources and services.